createdAt,value
2018-12-04T00:00:37.513Z,2.30
2018-12-04T00:03:05.746Z,2.77
2018-12-04T00:05:33.981Z,2.93
2018-12-04T00:08:02.217Z,2.73
2018-12-04T00:10:30.363Z,2.90
2018-12-04T00:12:58.510Z,3.13
2018-12-04T00:15:27.087Z,3.43
2018-12-04T00:17:55.230Z,3.13
2018-12-04T00:20:23.393Z,3.70
2018-12-04T00:22:51.520Z,3.47
2018-12-04T00:25:19.697Z,2.93
2018-12-04T00:27:47.858Z,3.40
2018-12-04T00:30:16.005Z,2.90
2018-12-04T00:32:44.153Z,3.10
2018-12-04T00:35:12.299Z,3.50
2018-12-04T00:37:40.452Z,3.20
2018-12-04T00:40:08.776Z,3.10
2018-12-04T00:42:36.918Z,4.10
2018-12-04T00:45:05.538Z,2.97
2018-12-04T00:47:34.500Z,3.30
2018-12-04T00:50:02.677Z,3.03
2018-12-04T00:52:31.529Z,3.77
2018-12-04T00:54:59.732Z,3.10
2018-12-04T00:57:27.967Z,2.70
2018-12-04T00:59:56.149Z,3.60
2018-12-04T01:02:25.064Z,2.67
2018-12-04T01:04:53.202Z,2.70
2018-12-04T01:07:21.351Z,2.93
2018-12-04T01:09:49.509Z,2.50
2018-12-04T01:12:17.777Z,3.10
2018-12-04T01:14:45.917Z,2.47
2018-12-04T01:17:14.082Z,2.57
2018-12-04T01:19:42.220Z,2.00
2018-12-04T01:22:10.400Z,2.50
2018-12-04T01:24:38.546Z,2.60
2018-12-04T01:27:06.734Z,3.07
2018-12-04T01:29:34.884Z,2.93
2018-12-04T01:32:03.090Z,2.40
2018-12-04T01:34:31.218Z,2.50
2018-12-04T01:37:00.823Z,3.13
2018-12-04T01:39:29.036Z,3.40
2018-12-04T01:41:57.210Z,3.53
2018-12-04T01:44:25.406Z,4.03
2018-12-04T01:46:53.842Z,3.33
2018-12-04T01:49:21.995Z,2.97
2018-12-04T01:51:50.143Z,3.17
2018-12-04T01:54:18.421Z,3.10
2018-12-04T01:56:46.661Z,3.03
2018-12-04T01:59:14.938Z,2.50
2018-12-04T02:01:43.094Z,2.80
2018-12-04T02:04:11.340Z,3.33
2018-12-04T02:06:39.497Z,3.10
2018-12-04T02:09:07.741Z,2.60
2018-12-04T02:11:35.879Z,2.57
2018-12-04T02:14:05.226Z,2.17
2018-12-04T02:16:33.386Z,2.80
2018-12-04T02:19:01.536Z,1.60
2018-12-04T02:21:29.733Z,1.83
2018-12-04T02:23:57.891Z,1.67
2018-12-04T02:26:26.093Z,1.67
2018-12-04T02:28:54.956Z,1.20
2018-12-04T02:31:23.171Z,1.10
2018-12-04T02:33:51.378Z,1.80
2018-12-04T02:38:54.103Z,1.10
2018-12-04T02:41:22.339Z,1.10
2018-12-04T02:43:50.524Z,1.40
2018-12-04T02:46:18.692Z,1.33
2018-12-04T02:48:46.894Z,1.47
2018-12-04T02:51:15.050Z,1.60
2018-12-04T02:53:43.259Z,1.60
2018-12-04T02:56:11.433Z,1.90
2018-12-04T02:58:39.666Z,1.70
2018-12-04T03:01:07.938Z,2.80
2018-12-04T03:03:36.224Z,2.10
2018-12-04T03:06:04.556Z,2.90
2018-12-04T03:08:32.717Z,2.60
2018-12-04T03:11:00.859Z,2.60
2018-12-04T03:13:29.138Z,2.60
2018-12-04T03:15:57.287Z,2.67
2018-12-04T03:18:25.454Z,3.07
2018-12-04T03:20:53.603Z,2.93
2018-12-04T03:23:21.873Z,3.10
2018-12-04T03:25:50.100Z,3.23
2018-12-04T03:28:18.278Z,3.43
2018-12-04T03:30:46.550Z,3.57
2018-12-04T03:33:18.654Z,2.33
2018-12-04T03:35:47.582Z,2.77
2018-12-04T03:38:15.730Z,2.60
2018-12-04T03:40:43.927Z,2.07
2018-12-04T03:43:13.430Z,2.27
2018-12-04T03:45:41.630Z,2.33
2018-12-04T03:48:09.810Z,2.53
2018-12-04T03:50:37.967Z,2.50
2018-12-04T03:53:06.107Z,2.70
2018-12-04T03:55:34.466Z,2.30
2018-12-04T03:58:02.805Z,2.50
2018-12-04T04:00:32.085Z,3.10
2018-12-04T04:03:00.263Z,3.33
2018-12-04T04:05:28.422Z,2.83
2018-12-04T04:07:56.666Z,2.43
2018-12-04T04:10:24.958Z,2.97
2018-12-04T04:12:53.209Z,2.57
2018-12-04T04:15:21.494Z,2.60
2018-12-04T04:17:49.631Z,3.27
2018-12-04T04:20:17.810Z,2.93
2018-12-04T04:22:46.019Z,2.90
2018-12-04T04:25:14.190Z,2.67
2018-12-04T04:27:42.354Z,2.93
2018-12-04T04:30:10.581Z,2.73
2018-12-04T04:32:38.738Z,2.50
2018-12-04T04:35:06.990Z,2.30
2018-12-04T04:37:35.203Z,2.77
2018-12-04T04:40:04.252Z,3.30
2018-12-04T04:42:32.451Z,3.00
2018-12-04T04:45:00.642Z,3.53
2018-12-04T04:47:28.791Z,2.87
2018-12-04T04:49:57.007Z,2.97
2018-12-04T04:52:25.155Z,3.20
2018-12-04T04:54:53.302Z,2.87
2018-12-04T04:57:21.658Z,3.70
2018-12-04T04:59:49.819Z,2.73
2018-12-04T05:02:17.970Z,2.90
2018-12-04T05:04:46.276Z,3.37
2018-12-04T05:07:14.681Z,4.30
2018-12-04T05:09:42.830Z,3.83
2018-12-04T05:12:11.014Z,3.53
2018-12-04T05:14:39.243Z,4.20
2018-12-04T05:17:07.614Z,2.33
2018-12-04T05:19:35.765Z,2.27
2018-12-04T05:22:04.074Z,2.30
2018-12-04T05:24:32.250Z,2.00
2018-12-04T05:27:00.471Z,2.30
2018-12-04T05:29:28.597Z,2.30
2018-12-04T05:31:56.758Z,2.30
2018-12-04T05:34:25.566Z,2.90
2018-12-04T05:36:53.702Z,2.67
2018-12-04T05:39:21.841Z,2.67
2018-12-04T05:41:49.997Z,3.33
2018-12-04T05:44:18.182Z,2.70
2018-12-04T05:46:46.387Z,3.10
2018-12-04T05:49:14.655Z,3.07
2018-12-04T05:51:43.511Z,3.00
2018-12-04T05:54:13.091Z,2.53
2018-12-04T05:56:41.334Z,3.10
2018-12-04T05:59:09.502Z,3.27
2018-12-04T06:01:37.734Z,2.67
2018-12-04T06:04:06.041Z,3.40
2018-12-04T06:06:34.319Z,3.77
2018-12-04T06:09:03.253Z,3.03
2018-12-04T06:11:32.248Z,3.53
2018-12-04T06:14:00.449Z,3.43
2018-12-04T06:16:28.596Z,3.30
2018-12-04T06:18:56.855Z,3.20
2018-12-04T06:21:25.048Z,2.77
2018-12-04T06:23:53.252Z,3.00
2018-12-04T06:26:21.427Z,2.67
2018-12-04T06:28:49.580Z,2.77
2018-12-04T06:31:17.711Z,2.77
2018-12-04T06:33:46.011Z,3.00
2018-12-04T06:36:14.154Z,2.73
2018-12-04T06:38:42.422Z,2.80
2018-12-04T06:41:10.599Z,3.00
2018-12-04T06:43:38.748Z,2.97
2018-12-04T06:46:06.933Z,3.07
2018-12-04T06:48:35.123Z,2.93
2018-12-04T06:51:03.260Z,2.80
2018-12-04T06:53:31.414Z,2.93
2018-12-04T06:55:59.542Z,2.50
2018-12-04T06:58:27.708Z,3.37
2018-12-04T07:00:55.887Z,3.27
2018-12-04T07:03:24.022Z,2.90
2018-12-04T07:05:54.169Z,3.90
2018-12-04T07:08:22.356Z,3.57
2018-12-04T07:10:50.528Z,3.80
2018-12-04T07:13:18.654Z,2.93
2018-12-04T07:15:46.802Z,2.87
2018-12-04T07:18:14.949Z,3.87
2018-12-04T07:20:43.089Z,3.60
2018-12-04T07:23:11.243Z,3.60
2018-12-04T07:25:39.395Z,3.10
2018-12-04T07:28:07.570Z,3.73
2018-12-04T07:30:35.718Z,3.70
2018-12-04T07:33:03.873Z,3.50
2018-12-04T07:35:32.006Z,4.10
2018-12-04T07:38:00.159Z,3.40
2018-12-04T07:40:28.318Z,4.00
2018-12-04T07:42:56.450Z,3.37
2018-12-04T07:45:24.605Z,2.47
2018-12-04T07:47:52.748Z,2.50
2018-12-04T07:50:20.986Z,3.00
2018-12-04T07:52:50.087Z,2.00
2018-12-04T07:55:18.291Z,2.63
2018-12-04T07:57:46.482Z,1.97
2018-12-04T08:00:14.632Z,2.23
2018-12-04T08:02:42.833Z,2.50
2018-12-04T08:05:11.012Z,2.60
2018-12-04T08:07:39.467Z,2.80
2018-12-04T08:10:07.825Z,2.80
2018-12-04T08:12:35.999Z,3.60
2018-12-04T08:15:05.058Z,2.67
2018-12-04T08:17:33.247Z,1.50
2018-12-04T08:20:01.581Z,1.90
2018-12-04T08:22:29.808Z,1.60
2018-12-04T08:24:58.233Z,1.53
2018-12-04T08:27:26.379Z,1.20
2018-12-04T08:29:54.586Z,1.20
2018-12-04T08:32:23.148Z,1.40
2018-12-04T08:34:51.474Z,2.20
2018-12-04T08:37:19.618Z,1.93
2018-12-04T08:39:47.762Z,2.07
2018-12-04T08:42:15.989Z,2.07
2018-12-04T08:44:44.126Z,2.50
2018-12-04T08:47:12.319Z,2.20
2018-12-04T08:49:40.538Z,3.30
2018-12-04T08:52:08.727Z,3.40
2018-12-04T08:54:36.878Z,2.70
2018-12-04T08:57:05.123Z,2.70
2018-12-04T08:59:33.267Z,2.40
2018-12-04T09:02:01.490Z,2.80
2018-12-04T09:04:29.702Z,2.07
2018-12-04T09:06:57.871Z,2.57
2018-12-04T09:09:26.177Z,3.30
2018-12-04T09:11:54.328Z,2.30
2018-12-04T09:14:22.462Z,2.57
2018-12-04T09:16:50.607Z,2.40
2018-12-04T09:19:18.761Z,2.37
2018-12-04T09:21:47.026Z,3.23
2018-12-04T09:24:15.303Z,2.80
2018-12-04T09:26:43.661Z,2.47
2018-12-04T09:29:11.974Z,2.40
2018-12-04T09:31:40.188Z,2.60
2018-12-04T09:34:08.354Z,2.57
2018-12-04T09:36:36.496Z,2.70
2018-12-04T09:39:06.774Z,2.90
2018-12-04T09:41:35.023Z,2.43
2018-12-04T09:44:03.338Z,2.30
2018-12-04T09:46:31.490Z,2.43
2018-12-04T09:48:59.631Z,2.90
2018-12-04T09:51:27.761Z,2.73
2018-12-04T09:53:55.918Z,2.90
2018-12-04T09:56:24.195Z,2.70
2018-12-04T09:58:52.335Z,2.20
2018-12-04T10:01:20.483Z,2.47
2018-12-04T10:03:48.710Z,2.53
2018-12-04T10:06:16.906Z,3.10
2018-12-04T10:08:45.109Z,2.77
2018-12-04T10:11:13.264Z,2.40
2018-12-04T10:13:41.395Z,3.03
2018-12-04T10:16:09.536Z,2.90
2018-12-04T10:18:37.715Z,3.10
2018-12-04T10:21:06.011Z,2.97
2018-12-04T10:23:34.219Z,2.63
2018-12-04T10:26:02.390Z,3.27
2018-12-04T10:28:30.526Z,3.63
2018-12-04T10:31:04.533Z,3.20
2018-12-04T10:33:32.767Z,4.37
2018-12-04T10:36:01.042Z,3.00
2018-12-04T10:38:29.306Z,4.70
2018-12-04T10:40:57.493Z,3.10
2018-12-04T10:43:25.634Z,4.47
2018-12-04T10:45:53.858Z,3.40
2018-12-04T10:48:22.004Z,3.80
2018-12-04T10:50:50.173Z,3.57
2018-12-04T10:53:19.026Z,3.27
2018-12-04T10:55:47.280Z,3.30
2018-12-04T10:58:15.501Z,3.67
2018-12-04T11:00:49.338Z,2.90
2018-12-04T11:03:19.588Z,3.47
2018-12-04T11:05:48.075Z,3.10
2018-12-04T11:08:16.324Z,3.30
2018-12-04T11:10:44.461Z,3.10
2018-12-04T11:13:12.661Z,3.17
2018-12-04T11:15:41.414Z,3.03
2018-12-04T11:18:09.640Z,2.90
2018-12-04T11:20:37.776Z,2.50
2018-12-04T11:23:05.953Z,2.53
2018-12-04T11:25:34.963Z,2.80
2018-12-04T11:28:03.124Z,2.33
2018-12-04T11:30:31.307Z,2.70
2018-12-04T11:32:59.516Z,2.53
2018-12-04T11:35:27.656Z,2.87
2018-12-04T11:37:55.807Z,2.80
2018-12-04T11:40:24.117Z,2.70
2018-12-04T11:42:52.384Z,2.73
2018-12-04T11:45:20.747Z,2.77
2018-12-04T11:47:48.924Z,2.70
2018-12-04T11:50:17.184Z,2.73
2018-12-04T11:52:45.370Z,3.17
2018-12-04T11:55:13.570Z,3.00
2018-12-04T11:57:41.740Z,2.70
2018-12-04T12:00:12.701Z,3.57
2018-12-04T12:02:40.852Z,2.63
2018-12-04T12:05:09.002Z,2.73
2018-12-04T12:07:37.159Z,3.00
2018-12-04T12:10:06.285Z,2.60
2018-12-04T12:12:34.460Z,2.53
2018-12-04T12:15:02.739Z,2.97
2018-12-04T12:17:30.897Z,2.80
2018-12-04T12:19:59.185Z,2.63
2018-12-04T12:22:27.392Z,2.40
2018-12-04T12:24:55.552Z,2.70
2018-12-04T12:27:23.846Z,2.90
2018-12-04T12:29:52.093Z,2.60
2018-12-04T12:32:20.329Z,2.70
2018-12-04T12:34:48.568Z,3.37
2018-12-04T12:37:16.811Z,3.23
2018-12-04T12:39:44.963Z,3.03
2018-12-04T12:42:13.335Z,2.73
2018-12-04T12:44:41.538Z,3.30
2018-12-04T12:47:09.785Z,3.27
2018-12-04T12:49:37.950Z,3.20
2018-12-04T12:52:06.109Z,3.10
2018-12-04T12:54:34.295Z,2.97
2018-12-04T12:57:03.139Z,3.43
2018-12-04T12:59:31.346Z,2.97
2018-12-04T13:01:59.547Z,3.03
2018-12-04T13:04:27.727Z,3.47
2018-12-04T13:06:55.874Z,3.27
2018-12-04T13:09:24.020Z,3.67
2018-12-04T13:11:52.468Z,3.00
2018-12-04T13:14:20.613Z,3.00
2018-12-04T13:16:48.840Z,3.20
2018-12-04T13:19:17.089Z,3.27
2018-12-04T13:21:45.255Z,2.97
2018-12-04T13:24:13.535Z,3.20
2018-12-04T13:26:41.752Z,3.57
2018-12-04T13:29:10.031Z,4.47
2018-12-04T13:31:38.287Z,3.40
2018-12-04T13:34:06.567Z,3.10
2018-12-04T13:36:34.691Z,2.60
2018-12-04T13:39:05.745Z,2.60
2018-12-04T13:41:34.777Z,2.60
2018-12-04T13:44:02.941Z,2.33
2018-12-04T13:46:31.139Z,3.20
2018-12-04T13:48:59.392Z,2.60
2018-12-04T13:51:27.523Z,2.80
2018-12-04T13:53:55.710Z,3.10
2018-12-04T13:56:23.857Z,2.60
2018-12-04T13:58:52.001Z,2.50
2018-12-04T14:01:20.214Z,3.10
2018-12-04T14:03:48.402Z,2.40
2018-12-04T14:06:16.718Z,2.70
2018-12-04T14:08:44.939Z,2.40
2018-12-04T14:11:13.315Z,2.77
2018-12-04T14:13:41.614Z,2.50
2018-12-04T14:16:09.769Z,2.77
2018-12-04T14:18:37.950Z,2.43
2018-12-04T14:21:06.415Z,2.63
2018-12-04T14:23:34.651Z,3.37
2018-12-04T14:26:02.928Z,2.87
2018-12-04T14:28:31.258Z,2.40
2018-12-04T14:30:59.461Z,2.60
2018-12-04T14:33:27.726Z,3.50
2018-12-04T14:35:55.867Z,3.33
2018-12-04T14:38:24.624Z,3.83
2018-12-04T14:40:53.060Z,3.10
2018-12-04T14:43:21.259Z,2.27
2018-12-04T14:45:49.572Z,2.17
2018-12-04T14:48:17.805Z,1.83
2018-12-04T14:50:46.061Z,1.97
2018-12-04T14:53:14.335Z,1.67
2018-12-04T14:55:42.528Z,1.47
2018-12-04T14:58:10.838Z,1.90
2018-12-04T15:00:39.152Z,1.90
2018-12-04T15:03:07.315Z,1.80
2018-12-04T15:05:35.547Z,2.20
2018-12-04T15:08:03.803Z,3.10
2018-12-04T15:10:32.209Z,2.07
2018-12-04T15:13:00.437Z,1.73
2018-12-04T15:15:28.699Z,2.27
2018-12-04T15:17:56.957Z,2.03
2018-12-04T15:20:25.239Z,1.40
2018-12-04T15:22:53.440Z,1.20
2018-12-04T15:25:21.615Z,1.80
2018-12-04T15:27:49.866Z,1.10
2018-12-04T15:30:18.078Z,1.37
2018-12-04T15:32:46.402Z,1.53
2018-12-04T15:35:14.703Z,1.60
2018-12-04T15:37:42.996Z,1.47
2018-12-04T15:40:11.257Z,1.20
2018-12-04T15:42:39.454Z,1.40
2018-12-04T15:45:07.773Z,1.50
2018-12-04T15:47:36.050Z,1.50
2018-12-04T15:50:05.354Z,1.80
2018-12-04T15:52:33.527Z,1.13
2018-12-04T15:55:01.758Z,1.47
2018-12-04T15:57:30.085Z,1.77
2018-12-04T15:59:58.242Z,1.60
2018-12-04T16:02:26.655Z,2.50
2018-12-04T16:04:54.806Z,3.37
2018-12-04T16:07:23.056Z,3.47
2018-12-04T16:09:51.247Z,3.10
2018-12-04T16:12:19.407Z,2.70
2018-12-04T16:14:48.139Z,2.70
2018-12-04T16:17:17.814Z,2.60
2018-12-04T16:19:46.031Z,2.23
2018-12-04T16:22:14.263Z,2.50
2018-12-04T16:24:42.515Z,2.37
2018-12-04T16:27:10.704Z,2.10
2018-12-04T16:29:38.931Z,2.43
2018-12-04T16:32:07.267Z,2.10
2018-12-04T16:34:35.915Z,2.60
2018-12-04T16:37:04.192Z,2.47
2018-12-04T16:39:32.352Z,2.60
2018-12-04T16:42:00.511Z,3.27
2018-12-04T16:44:28.877Z,4.00
2018-12-04T16:46:56.999Z,6.50
2018-12-04T16:49:25.177Z,5.70
2018-12-04T16:51:53.350Z,4.90
2018-12-04T16:54:21.557Z,3.60
2018-12-04T16:56:49.717Z,3.87
2018-12-04T16:59:17.906Z,4.10
2018-12-04T17:01:46.163Z,3.73
2018-12-04T17:04:14.386Z,4.57
2018-12-04T17:06:43.258Z,3.70
2018-12-04T17:09:11.420Z,3.90
2018-12-04T17:11:39.768Z,3.43
2018-12-04T17:14:07.907Z,3.50
2018-12-04T17:16:36.359Z,3.90
2018-12-04T17:19:04.839Z,3.73
2018-12-04T17:21:33.023Z,3.93
2018-12-04T17:24:01.477Z,4.20
2018-12-04T17:26:29.663Z,4.07
2018-12-04T17:28:57.878Z,3.73
2018-12-04T17:31:26.103Z,4.43
2018-12-04T17:33:55.123Z,4.63
2018-12-04T17:36:23.441Z,3.60
2018-12-04T17:38:51.684Z,3.47
2018-12-04T17:41:19.847Z,3.97
2018-12-04T17:43:48.048Z,4.10
2018-12-04T17:46:16.222Z,3.67
2018-12-04T17:48:44.374Z,4.03
2018-12-04T17:51:12.559Z,4.30
2018-12-04T17:53:40.714Z,3.93
2018-12-04T17:56:08.925Z,4.10
2018-12-04T17:58:37.124Z,3.93
2018-12-04T18:01:05.289Z,5.13
2018-12-04T18:03:33.493Z,5.10
2018-12-04T18:06:01.680Z,7.37
2018-12-04T18:08:29.880Z,5.53
2018-12-04T18:10:59.127Z,5.23
2018-12-04T18:13:28.160Z,5.37
2018-12-04T18:15:56.278Z,5.37
2018-12-04T18:18:24.447Z,4.80
2018-12-04T18:20:52.618Z,4.57
2018-12-04T18:23:20.813Z,4.37
2018-12-04T18:25:48.976Z,4.73
2018-12-04T18:28:17.179Z,5.87
2018-12-04T18:30:45.638Z,5.57
2018-12-04T18:33:14.255Z,5.93
2018-12-04T18:35:42.530Z,5.10
2018-12-04T18:38:10.735Z,4.10
2018-12-04T18:40:38.983Z,4.63
2018-12-04T18:43:07.912Z,4.43
2018-12-04T18:45:36.131Z,5.10
2018-12-04T18:48:04.339Z,4.33
2018-12-04T18:50:32.531Z,4.67
2018-12-04T18:53:00.706Z,4.70
2018-12-04T18:55:28.873Z,4.43
2018-12-04T18:57:57.132Z,4.97
2018-12-04T19:00:25.299Z,4.80
2018-12-04T19:02:53.531Z,4.27
2018-12-04T19:05:21.684Z,4.97
2018-12-04T19:07:49.835Z,4.07
2018-12-04T19:10:18.031Z,4.80
2018-12-04T19:12:46.201Z,4.67
2018-12-04T19:15:14.413Z,4.93
2018-12-04T19:17:42.589Z,4.50
2018-12-04T19:20:10.739Z,4.70
2018-12-04T19:22:39.052Z,4.93
2018-12-04T19:25:07.240Z,4.33
2018-12-04T19:27:35.732Z,5.00
2018-12-04T19:30:06.914Z,4.97
2018-12-04T19:32:35.148Z,5.07
2018-12-04T19:35:03.385Z,4.97
2018-12-04T19:37:31.590Z,5.47
2018-12-04T19:39:59.751Z,5.57
2018-12-04T19:42:28.459Z,6.13
2018-12-04T19:44:56.622Z,5.63
2018-12-04T19:47:24.759Z,5.13
2018-12-04T19:49:52.947Z,5.30
2018-12-04T19:52:21.558Z,5.60
2018-12-04T19:54:49.737Z,5.57
2018-12-04T19:57:17.911Z,5.50
2018-12-04T19:59:46.055Z,6.53
2018-12-04T20:02:14.219Z,6.27
2018-12-04T20:04:42.380Z,6.70
2018-12-04T20:07:10.625Z,6.40
2018-12-04T20:09:38.864Z,5.83
2018-12-04T20:12:07.067Z,6.37
2018-12-04T20:14:35.245Z,6.60
2018-12-04T20:17:03.515Z,6.60
2018-12-04T20:19:31.775Z,6.63
2018-12-04T20:22:00.002Z,7.07
2018-12-04T20:24:28.199Z,7.17
2018-12-04T20:26:56.363Z,7.93
2018-12-04T20:29:24.553Z,8.00
2018-12-04T20:31:52.779Z,8.07
2018-12-04T20:34:21.829Z,7.33
2018-12-04T20:36:49.979Z,7.57
2018-12-04T20:39:18.134Z,6.50
2018-12-04T20:41:46.363Z,7.83
2018-12-04T20:44:14.626Z,8.17
2018-12-04T20:46:43.040Z,7.10
2018-12-04T20:49:12.331Z,7.53
2018-12-04T20:51:40.775Z,7.97
2018-12-04T20:54:08.922Z,7.60
2018-12-04T20:56:37.070Z,7.23
2018-12-04T20:59:05.316Z,9.37
2018-12-04T21:01:33.602Z,7.80
2018-12-04T21:04:01.812Z,8.83
2018-12-04T21:06:29.970Z,8.17
2018-12-04T21:08:58.809Z,9.50
2018-12-04T21:11:26.950Z,8.80
2018-12-04T21:13:55.097Z,9.17
2018-12-04T21:16:23.255Z,9.37
2018-12-04T21:18:51.415Z,8.87
2018-12-04T21:21:19.611Z,9.33
2018-12-04T21:23:47.777Z,9.73
2018-12-04T21:26:16.677Z,9.60
2018-12-04T21:28:48.924Z,10.30
2018-12-04T21:31:22.748Z,9.43
2018-12-04T21:40:18.450Z,14.47
2018-12-04T21:42:52.395Z,14.97
2018-12-04T21:45:26.346Z,15.07
2018-12-04T21:47:56.515Z,15.47
2018-12-04T21:50:24.711Z,15.93
2018-12-04T21:52:52.849Z,19.00
2018-12-04T21:55:21.075Z,18.67
2018-12-04T21:57:49.223Z,17.93
2018-12-04T22:00:18.353Z,16.27
2018-12-04T22:02:46.529Z,16.00
2018-12-04T22:05:14.757Z,15.67
2018-12-04T22:07:42.908Z,15.57
2018-12-04T22:10:11.107Z,14.77
2018-12-04T22:12:39.348Z,14.33
2018-12-04T22:15:07.766Z,13.70
2018-12-04T22:17:35.955Z,12.80
2018-12-04T22:20:05.967Z,12.87
2018-12-04T22:22:34.204Z,13.77
2018-12-04T22:25:02.571Z,13.77
2018-12-04T22:27:30.731Z,14.50
2018-12-04T22:29:58.884Z,15.27
2018-12-04T22:32:27.108Z,15.20
2018-12-04T22:34:55.259Z,15.30
2018-12-04T22:37:23.418Z,15.90
2018-12-04T22:39:51.611Z,15.73
2018-12-04T22:42:20.670Z,14.67
2018-12-04T22:44:49.226Z,15.40
2018-12-04T22:47:17.753Z,14.97
2018-12-04T22:49:45.902Z,15.60
2018-12-04T22:52:14.064Z,15.13
2018-12-04T22:54:42.210Z,17.27
2018-12-04T22:57:10.354Z,16.13
2018-12-04T22:59:38.531Z,16.57
2018-12-04T23:02:06.715Z,18.27
2018-12-04T23:04:34.883Z,18.13
2018-12-04T23:07:03.029Z,17.33
2018-12-04T23:09:31.173Z,16.87
2018-12-04T23:11:59.373Z,17.87
2018-12-04T23:14:27.694Z,17.13
2018-12-04T23:16:55.879Z,17.53
2018-12-04T23:19:24.258Z,17.87
2018-12-04T23:21:52.448Z,18.27
2018-12-04T23:24:20.593Z,17.60
2018-12-04T23:26:48.739Z,17.43
2018-12-04T23:29:16.907Z,18.27
2018-12-04T23:31:45.102Z,18.97
2018-12-04T23:34:13.259Z,19.77
2018-12-04T23:36:41.466Z,19.73
2018-12-04T23:39:09.701Z,22.23
2018-12-04T23:41:38.074Z,22.23
2018-12-04T23:44:06.224Z,24.03
2018-12-04T23:46:34.381Z,25.23
2018-12-04T23:49:02.532Z,25.07
2018-12-04T23:51:30.916Z,26.37
2018-12-04T23:53:59.055Z,27.33
2018-12-04T23:56:27.301Z,27.20
2018-12-04T23:58:55.515Z,26.47
